sensor_id;sensor_type;location;lat;lon;timestamp;temperature;humidity
65239;SHT30;51827;51.186;6.926;2022-11-04T00:00:13;19.70;60.24
65239;SHT30;51827;51.186;6.926;2022-11-04T00:01:13;19.70;60.22
65239;SHT30;51827;51.186;6.926;2022-11-04T00:02:13;19.70;60.23
65239;SHT30;51827;51.186;6.926;2022-11-04T00:03:14;19.69;60.23
65239;SHT30;51827;51.186;6.926;2022-11-04T00:04:16;19.69;60.17
65239;SHT30;51827;51.186;6.926;2022-11-04T00:05:16;19.67;60.19
65239;SHT30;51827;51.186;6.926;2022-11-04T00:06:17;19.69;60.18
65239;SHT30;51827;51.186;6.926;2022-11-04T00:07:17;19.67;60.18
65239;SHT30;51827;51.186;6.926;2022-11-04T00:08:17;19.69;60.20
65239;SHT30;51827;51.186;6.926;2022-11-04T00:09:23;19.67;60.17
65239;SHT30;51827;51.186;6.926;2022-11-04T00:10:23;19.67;60.16
65239;SHT30;51827;51.186;6.926;2022-11-04T00:11:25;19.69;60.11
65239;SHT30;51827;51.186;6.926;2022-11-04T00:12:25;19.67;60.16
65239;SHT30;51827;51.186;6.926;2022-11-04T00:13:28;19.70;60.13
65239;SHT30;51827;51.186;6.926;2022-11-04T00:14:29;19.69;60.10
65239;SHT30;51827;51.186;6.926;2022-11-04T00:15:29;19.69;60.11
65239;SHT30;51827;51.186;6.926;2022-11-04T00:16:30;19.69;60.12
65239;SHT30;51827;51.186;6.926;2022-11-04T00:17:30;19.67;60.15
65239;SHT30;51827;51.186;6.926;2022-11-04T00:18:30;19.67;60.11
65239;SHT30;51827;51.186;6.926;2022-11-04T00:19:30;19.67;60.09
65239;SHT30;51827;51.186;6.926;2022-11-04T00:20:31;19.69;60.08
65239;SHT30;51827;51.186;6.926;2022-11-04T00:21:31;19.66;60.08
65239;SHT30;51827;51.186;6.926;2022-11-04T00:22:31;19.69;60.12
65239;SHT30;51827;51.186;6.926;2022-11-04T00:23:32;19.67;60.11
65239;SHT30;51827;51.186;6.926;2022-11-04T00:24:32;19.70;60.07
65239;SHT30;51827;51.186;6.926;2022-11-04T00:25:32;19.64;60.11
65239;SHT30;51827;51.186;6.926;2022-11-04T00:26:32;19.66;60.07
65239;SHT30;51827;51.186;6.926;2022-11-04T00:27:33;19.66;60.06
65239;SHT30;51827;51.186;6.926;2022-11-04T00:28:33;19.67;60.07
65239;SHT30;51827;51.186;6.926;2022-11-04T00:29:33;19.66;60.06
65239;SHT30;51827;51.186;6.926;2022-11-04T00:30:34;19.67;60.07
65239;SHT30;51827;51.186;6.926;2022-11-04T00:31:34;19.64;60.02
65239;SHT30;51827;51.186;6.926;2022-11-04T00:32:34;19.67;60.02
65239;SHT30;51827;51.186;6.926;2022-11-04T00:33:35;19.66;60.04
65239;SHT30;51827;51.186;6.926;2022-11-04T00:34:35;19.66;60.04
65239;SHT30;51827;51.186;6.926;2022-11-04T00:35:35;19.66;60.02
65239;SHT30;51827;51.186;6.926;2022-11-04T00:36:36;19.64;60.00
65239;SHT30;51827;51.186;6.926;2022-11-04T00:37:41;19.67;59.97
65239;SHT30;51827;51.186;6.926;2022-11-04T00:38:42;19.66;59.96
65239;SHT30;51827;51.186;6.926;2022-11-04T00:39:42;19.67;59.95
65239;SHT30;51827;51.186;6.926;2022-11-04T00:40:43;19.67;59.95
65239;SHT30;51827;51.186;6.926;2022-11-04T00:41:43;19.64;59.95
65239;SHT30;51827;51.186;6.926;2022-11-04T00:42:44;19.66;59.95
65239;SHT30;51827;51.186;6.926;2022-11-04T00:43:44;19.64;59.94
65239;SHT30;51827;51.186;6.926;2022-11-04T00:44:44;19.62;59.95
65239;SHT30;51827;51.186;6.926;2022-11-04T00:45:45;19.64;60.00
65239;SHT30;51827;51.186;6.926;2022-11-04T00:46:45;19.64;59.94
65239;SHT30;51827;51.186;6.926;2022-11-04T00:47:45;19.66;59.97
65239;SHT30;51827;51.186;6.926;2022-11-04T00:48:46;19.64;59.89
65239;SHT30;51827;51.186;6.926;2022-11-04T00:49:46;19.67;59.85
65239;SHT30;51827;51.186;6.926;2022-11-04T00:50:46;19.64;59.88
65239;SHT30;51827;51.186;6.926;2022-11-04T00:51:46;19.63;59.89
65239;SHT30;51827;51.186;6.926;2022-11-04T00:52:47;19.64;59.91
65239;SHT30;51827;51.186;6.926;2022-11-04T00:53:47;19.63;59.88
65239;SHT30;51827;51.186;6.926;2022-11-04T00:54:48;19.63;59.86
65239;SHT30;51827;51.186;6.926;2022-11-04T00:55:48;19.64;59.86
65239;SHT30;51827;51.186;6.926;2022-11-04T00:56:48;19.64;59.88
65239;SHT30;51827;51.186;6.926;2022-11-04T00:57:48;19.62;59.86
65239;SHT30;51827;51.186;6.926;2022-11-04T00:58:49;19.63;59.87
65239;SHT30;51827;51.186;6.926;2022-11-04T00:59:49;19.62;59.86
65239;SHT30;51827;51.186;6.926;2022-11-04T01:00:49;19.64;59.82
65239;SHT30;51827;51.186;6.926;2022-11-04T01:01:49;19.64;59.81
65239;SHT30;51827;51.186;6.926;2022-11-04T01:02:50;19.64;59.80
65239;SHT30;51827;51.186;6.926;2022-11-04T01:03:51;19.63;59.83
65239;SHT30;51827;51.186;6.926;2022-11-04T01:04:52;19.64;59.82
65239;SHT30;51827;51.186;6.926;2022-11-04T01:05:52;19.63;59.78
65239;SHT30;51827;51.186;6.926;2022-11-04T01:06:53;19.63;59.70
65239;SHT30;51827;51.186;6.926;2022-11-04T01:07:53;19.62;59.76
65239;SHT30;51827;51.186;6.926;2022-11-04T01:08:55;19.63;59.77
65239;SHT30;51827;51.186;6.926;2022-11-04T01:09:56;19.62;59.75
65239;SHT30;51827;51.186;6.926;2022-11-04T01:11:00;19.63;59.74
65239;SHT30;51827;51.186;6.926;2022-11-04T01:12:01;19.63;59.74
65239;SHT30;51827;51.186;6.926;2022-11-04T01:13:01;19.63;59.73
65239;SHT30;51827;51.186;6.926;2022-11-04T01:14:02;19.64;59.73
65239;SHT30;51827;51.186;6.926;2022-11-04T01:15:02;19.64;59.74
65239;SHT30;51827;51.186;6.926;2022-11-04T01:16:05;19.63;59.70
65239;SHT30;51827;51.186;6.926;2022-11-04T01:17:06;19.63;59.74
65239;SHT30;51827;51.186;6.926;2022-11-04T01:18:06;19.63;59.72
65239;SHT30;51827;51.186;6.926;2022-11-04T01:19:07;19.63;59.69
65239;SHT30;51827;51.186;6.926;2022-11-04T01:20:07;19.62;59.72
65239;SHT30;51827;51.186;6.926;2022-11-04T01:21:10;19.63;59.73
65239;SHT30;51827;51.186;6.926;2022-11-04T01:22:11;19.60;59.70
65239;SHT30;51827;51.186;6.926;2022-11-04T01:23:11;19.62;59.74
65239;SHT30;51827;51.186;6.926;2022-11-04T01:24:11;19.60;59.73
65239;SHT30;51827;51.186;6.926;2022-11-04T01:25:11;19.62;59.71
65239;SHT30;51827;51.186;6.926;2022-11-04T01:26:18;19.59;59.73
65239;SHT30;51827;51.186;6.926;2022-11-04T01:27:18;19.62;59.70
65239;SHT30;51827;51.186;6.926;2022-11-04T01:28:19;19.62;59.69
65239;SHT30;51827;51.186;6.926;2022-11-04T01:29:19;19.59;59.70
65239;SHT30;51827;51.186;6.926;2022-11-04T01:30:19;19.60;59.70
65239;SHT30;51827;51.186;6.926;2022-11-04T01:31:22;19.62;59.64
65239;SHT30;51827;51.186;6.926;2022-11-04T01:32:23;19.60;59.62
65239;SHT30;51827;51.186;6.926;2022-11-04T01:33:23;19.62;59.62
65239;SHT30;51827;51.186;6.926;2022-11-04T01:34:23;19.62;59.64
65239;SHT30;51827;51.186;6.926;2022-11-04T01:35:24;19.59;59.61
65239;SHT30;51827;51.186;6.926;2022-11-04T01:36:25;19.62;59.60
65239;SHT30;51827;51.186;6.926;2022-11-04T01:37:25;19.62;59.62
65239;SHT30;51827;51.186;6.926;2022-11-04T01:38:26;19.60;59.62
65239;SHT30;51827;51.186;6.926;2022-11-04T01:39:26;19.62;59.61
65239;SHT30;51827;51.186;6.926;2022-11-04T01:40:26;19.57;59.59
65239;SHT30;51827;51.186;6.926;2022-11-04T01:41:29;19.57;59.62
65239;SHT30;51827;51.186;6.926;2022-11-04T01:42:29;19.60;59.58
65239;SHT30;51827;51.186;6.926;2022-11-04T01:43:55;19.59;59.58
65239;SHT30;51827;51.186;6.926;2022-11-04T01:44:57;19.59;59.58
65239;SHT30;51827;51.186;6.926;2022-11-04T01:45:59;19.60;59.56
65239;SHT30;51827;51.186;6.926;2022-11-04T01:47:00;19.62;59.58
65239;SHT30;51827;51.186;6.926;2022-11-04T01:48:05;19.60;59.58
65239;SHT30;51827;51.186;6.926;2022-11-04T01:49:15;19.60;59.54
65239;SHT30;51827;51.186;6.926;2022-11-04T01:50:24;19.60;59.57
65239;SHT30;51827;51.186;6.926;2022-11-04T01:51:27;19.59;59.58
65239;SHT30;51827;51.186;6.926;2022-11-04T01:52:40;19.59;59.55
65239;SHT30;51827;51.186;6.926;2022-11-04T01:53:42;19.60;59.54
65239;SHT30;51827;51.186;6.926;2022-11-04T01:54:43;19.60;59.48
65239;SHT30;51827;51.186;6.926;2022-11-04T01:55:50;19.62;59.48
65239;SHT30;51827;51.186;6.926;2022-11-04T01:56:51;19.59;59.48
65239;SHT30;51827;51.186;6.926;2022-11-04T01:57:55;19.59;59.49
65239;SHT30;51827;51.186;6.926;2022-11-04T01:58:58;19.60;59.51
65239;SHT30;51827;51.186;6.926;2022-11-04T02:00:04;19.57;59.51
65239;SHT30;51827;51.186;6.926;2022-11-04T02:01:07;19.59;59.49
65239;SHT30;51827;51.186;6.926;2022-11-04T02:02:09;19.59;59.51
65239;SHT30;51827;51.186;6.926;2022-11-04T02:03:19;19.59;59.47
65239;SHT30;51827;51.186;6.926;2022-11-04T02:04:20;19.57;59.52
65239;SHT30;51827;51.186;6.926;2022-11-04T02:05:21;19.57;59.51
65239;SHT30;51827;51.186;6.926;2022-11-04T02:06:21;19.57;59.51
65239;SHT30;51827;51.186;6.926;2022-11-04T02:07:22;19.57;59.45
65239;SHT30;51827;51.186;6.926;2022-11-04T02:08:22;19.57;59.49
65239;SHT30;51827;51.186;6.926;2022-11-04T02:09:24;19.56;59.48
65239;SHT30;51827;51.186;6.926;2022-11-04T02:10:26;19.59;59.51
65239;SHT30;51827;51.186;6.926;2022-11-04T02:11:27;19.56;59.51
65239;SHT30;51827;51.186;6.926;2022-11-04T02:12:27;19.54;59.52
65239;SHT30;51827;51.186;6.926;2022-11-04T02:13:29;19.57;59.50
65239;SHT30;51827;51.186;6.926;2022-11-04T02:14:31;19.56;59.52
65239;SHT30;51827;51.186;6.926;2022-11-04T02:16:45;19.53;59.52
65239;SHT30;51827;51.186;6.926;2022-11-04T02:23:20;19.54;59.43
65239;SHT30;51827;51.186;6.926;2022-11-04T02:28:10;19.56;59.41
65239;SHT30;51827;51.186;6.926;2022-11-04T02:29:36;19.56;59.35
65239;SHT30;51827;51.186;6.926;2022-11-04T02:30:48;19.59;59.40
65239;SHT30;51827;51.186;6.926;2022-11-04T02:33:46;19.54;59.38
65239;SHT30;51827;51.186;6.926;2022-11-04T02:36:45;19.54;59.34
65239;SHT30;51827;51.186;6.926;2022-11-04T02:38:09;19.53;59.38
65239;SHT30;51827;51.186;6.926;2022-11-04T02:39:16;19.52;59.35
65239;SHT30;51827;51.186;6.926;2022-11-04T02:41:40;19.54;59.32
65239;SHT30;51827;51.186;6.926;2022-11-04T02:44:26;19.53;59.31
65239;SHT30;51827;51.186;6.926;2022-11-04T02:45:37;19.52;59.32
65239;SHT30;51827;51.186;6.926;2022-11-04T02:46:52;19.52;59.30
65239;SHT30;51827;51.186;6.926;2022-11-04T02:49:24;19.52;59.33
65239;SHT30;51827;51.186;6.926;2022-11-04T02:50:42;19.50;59.29
65239;SHT30;51827;51.186;6.926;2022-11-04T02:51:49;19.50;59.33
65239;SHT30;51827;51.186;6.926;2022-11-04T02:53:02;19.50;59.35
65239;SHT30;51827;51.186;6.926;2022-11-04T02:55:16;19.52;59.31
65239;SHT30;51827;51.186;6.926;2022-11-04T02:56:19;19.49;59.30
65239;SHT30;51827;51.186;6.926;2022-11-04T02:57:26;19.52;59.28
65239;SHT30;51827;51.186;6.926;2022-11-04T02:59:14;19.53;59.27
65239;SHT30;51827;51.186;6.926;2022-11-04T03:00:12;19.50;59.22
65239;SHT30;51827;51.186;6.926;2022-11-04T03:01:16;19.50;59.22
65239;SHT30;51827;51.186;6.926;2022-11-04T03:02:22;19.49;59.21
65239;SHT30;51827;51.186;6.926;2022-11-04T03:03:27;19.50;59.24
65239;SHT30;51827;51.186;6.926;2022-11-04T03:04:34;19.52;59.22
65239;SHT30;51827;51.186;6.926;2022-11-04T03:05:38;19.49;59.26
65239;SHT30;51827;51.186;6.926;2022-11-04T03:06:41;19.52;59.23
65239;SHT30;51827;51.186;6.926;2022-11-04T03:07:43;19.50;59.19
65239;SHT30;51827;51.186;6.926;2022-11-04T03:08:47;19.52;59.21
65239;SHT30;51827;51.186;6.926;2022-11-04T03:09:52;19.49;59.19
65239;SHT30;51827;51.186;6.926;2022-11-04T03:10:59;19.50;59.18
65239;SHT30;51827;51.186;6.926;2022-11-04T03:12:08;19.49;59.14
65239;SHT30;51827;51.186;6.926;2022-11-04T03:14:37;19.50;59.10
65239;SHT30;51827;51.186;6.926;2022-11-04T03:15:39;19.50;59.09
65239;SHT30;51827;51.186;6.926;2022-11-04T03:16:50;19.49;59.04
65239;SHT30;51827;51.186;6.926;2022-11-04T03:18:19;19.52;59.07
65239;SHT30;51827;51.186;6.926;2022-11-04T03:19:52;19.50;58.98
65239;SHT30;51827;51.186;6.926;2022-11-04T03:20:57;19.52;59.03
65239;SHT30;51827;51.186;6.926;2022-11-04T03:22:14;19.49;58.99
65239;SHT30;51827;51.186;6.926;2022-11-04T03:23:15;19.50;59.00
65239;SHT30;51827;51.186;6.926;2022-11-04T03:24:16;19.49;59.04
65239;SHT30;51827;51.186;6.926;2022-11-04T03:25:16;19.49;59.01
65239;SHT30;51827;51.186;6.926;2022-11-04T03:28:52;19.47;58.95
65239;SHT30;51827;51.186;6.926;2022-11-04T03:30:00;19.50;58.93
65239;SHT30;51827;51.186;6.926;2022-11-04T03:31:02;19.49;58.94
65239;SHT30;51827;51.186;6.926;2022-11-04T03:34:29;19.49;58.95
65239;SHT30;51827;51.186;6.926;2022-11-04T03:35:30;19.50;58.92
65239;SHT30;51827;51.186;6.926;2022-11-04T03:36:30;19.49;58.91
65239;SHT30;51827;51.186;6.926;2022-11-04T03:37:31;19.47;58.94
65239;SHT30;51827;51.186;6.926;2022-11-04T03:38:31;19.50;58.96
65239;SHT30;51827;51.186;6.926;2022-11-04T03:39:32;19.49;58.93
65239;SHT30;51827;51.186;6.926;2022-11-04T03:40:32;19.49;58.91
65239;SHT30;51827;51.186;6.926;2022-11-04T03:41:41;19.47;58.86
65239;SHT30;51827;51.186;6.926;2022-11-04T03:42:51;19.46;58.91
65239;SHT30;51827;51.186;6.926;2022-11-04T03:43:52;19.49;58.87
65239;SHT30;51827;51.186;6.926;2022-11-04T03:44:55;19.49;58.89
65239;SHT30;51827;51.186;6.926;2022-11-04T03:45:55;19.52;58.82
65239;SHT30;51827;51.186;6.926;2022-11-04T03:46:55;19.50;58.79
65239;SHT30;51827;51.186;6.926;2022-11-04T03:47:57;19.49;58.81
65239;SHT30;51827;51.186;6.926;2022-11-04T03:48:58;19.52;58.83
65239;SHT30;51827;51.186;6.926;2022-11-04T03:51:02;19.52;58.82
65239;SHT30;51827;51.186;6.926;2022-11-04T03:52:02;19.52;58.83
65239;SHT30;51827;51.186;6.926;2022-11-04T03:53:03;19.50;58.77
65239;SHT30;51827;51.186;6.926;2022-11-04T03:54:04;19.50;58.77
65239;SHT30;51827;51.186;6.926;2022-11-04T03:55:05;19.49;58.80
65239;SHT30;51827;51.186;6.926;2022-11-04T04:04:13;19.46;58.75
65239;SHT30;51827;51.186;6.926;2022-11-04T04:05:37;19.45;58.74
65239;SHT30;51827;51.186;6.926;2022-11-04T04:06:40;19.45;58.73
65239;SHT30;51827;51.186;6.926;2022-11-04T04:07:44;19.47;58.71
65239;SHT30;51827;51.186;6.926;2022-11-04T04:08:48;19.49;58.67
65239;SHT30;51827;51.186;6.926;2022-11-04T04:09:56;19.46;58.72
65239;SHT30;51827;51.186;6.926;2022-11-04T04:11:15;19.50;58.72
65239;SHT30;51827;51.186;6.926;2022-11-04T04:12:31;19.47;58.70
65239;SHT30;51827;51.186;6.926;2022-11-04T04:15:22;19.49;58.64
65239;SHT30;51827;51.186;6.926;2022-11-04T04:16:32;19.47;58.63
65239;SHT30;51827;51.186;6.926;2022-11-04T04:17:42;19.47;58.65
65239;SHT30;51827;51.186;6.926;2022-11-04T04:19:55;19.46;58.71
65239;SHT30;51827;51.186;6.926;2022-11-04T04:20:58;19.43;58.69
65239;SHT30;51827;51.186;6.926;2022-11-04T04:22:06;19.46;58.69
65239;SHT30;51827;51.186;6.926;2022-11-04T04:23:16;19.46;58.69
65239;SHT30;51827;51.186;6.926;2022-11-04T04:24:22;19.45;58.67
65239;SHT30;51827;51.186;6.926;2022-11-04T04:25:26;19.45;58.69
65239;SHT30;51827;51.186;6.926;2022-11-04T04:26:27;19.45;58.66
65239;SHT30;51827;51.186;6.926;2022-11-04T04:27:30;19.45;58.67
65239;SHT30;51827;51.186;6.926;2022-11-04T04:28:30;19.45;58.66
65239;SHT30;51827;51.186;6.926;2022-11-04T04:29:31;19.45;58.67
65239;SHT30;51827;51.186;6.926;2022-11-04T04:30:32;19.45;58.71
65239;SHT30;51827;51.186;6.926;2022-11-04T04:31:35;19.43;58.68
65239;SHT30;51827;51.186;6.926;2022-11-04T04:32:43;19.45;58.67
65239;SHT30;51827;51.186;6.926;2022-11-04T04:33:44;19.43;58.68
65239;SHT30;51827;51.186;6.926;2022-11-04T04:34:44;19.45;58.71
65239;SHT30;51827;51.186;6.926;2022-11-04T04:35:49;19.42;58.68
65239;SHT30;51827;51.186;6.926;2022-11-04T04:37:04;19.45;58.67
65239;SHT30;51827;51.186;6.926;2022-11-04T04:38:07;19.42;58.67
65239;SHT30;51827;51.186;6.926;2022-11-04T04:39:14;19.46;58.68
65239;SHT30;51827;51.186;6.926;2022-11-04T04:40:19;19.45;58.67
65239;SHT30;51827;51.186;6.926;2022-11-04T04:41:26;19.43;58.62
65239;SHT30;51827;51.186;6.926;2022-11-04T04:42:34;19.45;58.63
65239;SHT30;51827;51.186;6.926;2022-11-04T04:43:35;19.42;58.67
65239;SHT30;51827;51.186;6.926;2022-11-04T04:44:40;19.42;58.63
65239;SHT30;51827;51.186;6.926;2022-11-04T04:45:42;19.43;58.61
65239;SHT30;51827;51.186;6.926;2022-11-04T04:46:44;19.42;58.63
65239;SHT30;51827;51.186;6.926;2022-11-04T04:47:45;19.40;58.62
65239;SHT30;51827;51.186;6.926;2022-11-04T04:48:45;19.45;58.62
65239;SHT30;51827;51.186;6.926;2022-11-04T04:49:52;19.45;58.65
65239;SHT30;51827;51.186;6.926;2022-11-04T04:50:55;19.42;58.64
65239;SHT30;51827;51.186;6.926;2022-11-04T04:51:56;19.43;58.64
65239;SHT30;51827;51.186;6.926;2022-11-04T04:52:57;19.40;58.65
65239;SHT30;51827;51.186;6.926;2022-11-04T04:53:58;19.43;58.66
65239;SHT30;51827;51.186;6.926;2022-11-04T04:54:58;19.43;58.62
65239;SHT30;51827;51.186;6.926;2022-11-04T04:55:59;19.45;58.60
65239;SHT30;51827;51.186;6.926;2022-11-04T04:56:59;19.42;58.62
65239;SHT30;51827;51.186;6.926;2022-11-04T04:57:59;19.45;58.60
65239;SHT30;51827;51.186;6.926;2022-11-04T04:58:59;19.43;58.57
65239;SHT30;51827;51.186;6.926;2022-11-04T05:00:00;19.43;58.56
65239;SHT30;51827;51.186;6.926;2022-11-04T05:01:02;19.43;58.59
65239;SHT30;51827;51.186;6.926;2022-11-04T05:02:02;19.42;58.61
65239;SHT30;51827;51.186;6.926;2022-11-04T05:03:02;19.39;58.61
65239;SHT30;51827;51.186;6.926;2022-11-04T05:04:02;19.42;58.59
65239;SHT30;51827;51.186;6.926;2022-11-04T05:05:03;19.40;58.55
65239;SHT30;51827;51.186;6.926;2022-11-04T05:06:03;19.40;58.60
65239;SHT30;51827;51.186;6.926;2022-11-04T05:07:04;19.42;58.60
65239;SHT30;51827;51.186;6.926;2022-11-04T05:08:05;19.39;58.60
65239;SHT30;51827;51.186;6.926;2022-11-04T05:09:06;19.40;58.60
65239;SHT30;51827;51.186;6.926;2022-11-04T05:10:08;19.40;58.61
65239;SHT30;51827;51.186;6.926;2022-11-04T05:11:09;19.40;58.58
65239;SHT30;51827;51.186;6.926;2022-11-04T05:12:09;19.40;58.53
65239;SHT30;51827;51.186;6.926;2022-11-04T05:13:11;19.42;58.49
65239;SHT30;51827;51.186;6.926;2022-11-04T05:14:11;19.43;58.49
65239;SHT30;51827;51.186;6.926;2022-11-04T05:15:12;19.40;58.48
65239;SHT30;51827;51.186;6.926;2022-11-04T05:16:12;19.43;58.47
65239;SHT30;51827;51.186;6.926;2022-11-04T05:17:13;19.45;58.45
65239;SHT30;51827;51.186;6.926;2022-11-04T05:18:13;19.45;58.53
65239;SHT30;51827;51.186;6.926;2022-11-04T05:19:14;19.45;58.49
65239;SHT30;51827;51.186;6.926;2022-11-04T05:20:14;19.43;58.49
65239;SHT30;51827;51.186;6.926;2022-11-04T05:21:14;19.43;58.48
65239;SHT30;51827;51.186;6.926;2022-11-04T05:22:15;19.43;58.56
65239;SHT30;51827;51.186;6.926;2022-11-04T05:23:15;19.43;58.51
65239;SHT30;51827;51.186;6.926;2022-11-04T05:24:15;19.43;58.53
65239;SHT30;51827;51.186;6.926;2022-11-04T05:25:16;19.43;58.54
65239;SHT30;51827;51.186;6.926;2022-11-04T05:26:16;19.42;58.56
65239;SHT30;51827;51.186;6.926;2022-11-04T05:27:16;19.43;58.55
65239;SHT30;51827;51.186;6.926;2022-11-04T05:28:17;19.45;58.57
65239;SHT30;51827;51.186;6.926;2022-11-04T05:29:17;19.42;58.57
65239;SHT30;51827;51.186;6.926;2022-11-04T05:30:17;19.45;58.53
65239;SHT30;51827;51.186;6.926;2022-11-04T05:31:17;19.45;58.54
65239;SHT30;51827;51.186;6.926;2022-11-04T05:32:18;19.43;58.58
65239;SHT30;51827;51.186;6.926;2022-11-04T05:33:18;19.43;58.56
65239;SHT30;51827;51.186;6.926;2022-11-04T05:34:18;19.46;58.55
65239;SHT30;51827;51.186;6.926;2022-11-04T05:35:18;19.45;58.58
65239;SHT30;51827;51.186;6.926;2022-11-04T05:36:19;19.43;58.58
65239;SHT30;51827;51.186;6.926;2022-11-04T05:37:19;19.46;58.63
65239;SHT30;51827;51.186;6.926;2022-11-04T05:38:19;19.46;58.59
65239;SHT30;51827;51.186;6.926;2022-11-04T05:39:19;19.46;58.62
65239;SHT30;51827;51.186;6.926;2022-11-04T05:40:20;19.46;58.67
65239;SHT30;51827;51.186;6.926;2022-11-04T05:41:20;19.47;58.65
65239;SHT30;51827;51.186;6.926;2022-11-04T05:42:21;19.47;58.66
65239;SHT30;51827;51.186;6.926;2022-11-04T05:43:21;19.45;58.73
65239;SHT30;51827;51.186;6.926;2022-11-04T05:44:21;19.47;58.72
65239;SHT30;51827;51.186;6.926;2022-11-04T05:45:21;19.46;58.68
65239;SHT30;51827;51.186;6.926;2022-11-04T05:46:22;19.47;58.76
65239;SHT30;51827;51.186;6.926;2022-11-04T05:47:22;19.46;58.78
65239;SHT30;51827;51.186;6.926;2022-11-04T05:48:22;19.46;58.84
65239;SHT30;51827;51.186;6.926;2022-11-04T05:49:23;19.46;58.92
65239;SHT30;51827;51.186;6.926;2022-11-04T05:50:23;19.47;58.99
65239;SHT30;51827;51.186;6.926;2022-11-04T05:51:26;19.46;59.00
65239;SHT30;51827;51.186;6.926;2022-11-04T05:52:26;19.45;59.06
65239;SHT30;51827;51.186;6.926;2022-11-04T05:53:26;19.45;59.13
65239;SHT30;51827;51.186;6.926;2022-11-04T05:54:27;19.43;59.17
65239;SHT30;51827;51.186;6.926;2022-11-04T05:55:27;19.43;59.18
65239;SHT30;51827;51.186;6.926;2022-11-04T05:56:27;19.43;59.21
65239;SHT30;51827;51.186;6.926;2022-11-04T05:57:28;19.46;59.18
65239;SHT30;51827;51.186;6.926;2022-11-04T05:58:28;19.46;59.15
65239;SHT30;51827;51.186;6.926;2022-11-04T05:59:28;19.43;59.15
65239;SHT30;51827;51.186;6.926;2022-11-04T06:00:29;19.46;59.13
65239;SHT30;51827;51.186;6.926;2022-11-04T06:01:31;19.45;59.17
65239;SHT30;51827;51.186;6.926;2022-11-04T06:02:32;19.45;59.10
65239;SHT30;51827;51.186;6.926;2022-11-04T06:03:32;19.46;59.09
65239;SHT30;51827;51.186;6.926;2022-11-04T06:04:33;19.45;59.07
65239;SHT30;51827;51.186;6.926;2022-11-04T06:05:33;19.46;59.04
65239;SHT30;51827;51.186;6.926;2022-11-04T06:06:35;19.45;59.00
65239;SHT30;51827;51.186;6.926;2022-11-04T06:07:35;19.46;59.09
65239;SHT30;51827;51.186;6.926;2022-11-04T06:08:36;19.46;59.01
65239;SHT30;51827;51.186;6.926;2022-11-04T06:09:36;19.47;59.05
65239;SHT30;51827;51.186;6.926;2022-11-04T06:10:36;19.45;59.03
65239;SHT30;51827;51.186;6.926;2022-11-04T06:11:37;19.45;59.00
65239;SHT30;51827;51.186;6.926;2022-11-04T06:12:37;19.43;59.01
65239;SHT30;51827;51.186;6.926;2022-11-04T06:13:38;19.43;59.06
65239;SHT30;51827;51.186;6.926;2022-11-04T06:14:38;19.45;59.06
65239;SHT30;51827;51.186;6.926;2022-11-04T06:15:38;19.46;59.11
65239;SHT30;51827;51.186;6.926;2022-11-04T06:16:38;19.45;59.10
65239;SHT30;51827;51.186;6.926;2022-11-04T06:17:39;19.47;59.09
65239;SHT30;51827;51.186;6.926;2022-11-04T06:18:39;19.45;59.13
65239;SHT30;51827;51.186;6.926;2022-11-04T06:19:39;19.43;59.11
65239;SHT30;51827;51.186;6.926;2022-11-04T06:20:39;19.46;59.14
65239;SHT30;51827;51.186;6.926;2022-11-04T06:21:40;19.45;59.15
65239;SHT30;51827;51.186;6.926;2022-11-04T06:22:40;19.45;59.15
65239;SHT30;51827;51.186;6.926;2022-11-04T06:23:41;19.45;59.17
65239;SHT30;51827;51.186;6.926;2022-11-04T06:24:42;19.46;59.15
65239;SHT30;51827;51.186;6.926;2022-11-04T06:25:42;19.46;59.15
65239;SHT30;51827;51.186;6.926;2022-11-04T06:26:43;19.45;59.19
65239;SHT30;51827;51.186;6.926;2022-11-04T06:27:43;19.46;59.20
65239;SHT30;51827;51.186;6.926;2022-11-04T06:28:43;19.46;59.17
65239;SHT30;51827;51.186;6.926;2022-11-04T06:29:44;19.45;59.18
65239;SHT30;51827;51.186;6.926;2022-11-04T06:30:44;19.45;59.18
65239;SHT30;51827;51.186;6.926;2022-11-04T06:31:44;19.46;59.18
65239;SHT30;51827;51.186;6.926;2022-11-04T06:32:44;19.47;59.22
65239;SHT30;51827;51.186;6.926;2022-11-04T06:33:45;19.46;59.29
65239;SHT30;51827;51.186;6.926;2022-11-04T06:34:45;19.45;59.28
65239;SHT30;51827;51.186;6.926;2022-11-04T06:35:45;19.43;59.23
65239;SHT30;51827;51.186;6.926;2022-11-04T06:36:47;19.43;59.32
65239;SHT30;51827;51.186;6.926;2022-11-04T06:37:48;19.46;59.27
65239;SHT30;51827;51.186;6.926;2022-11-04T06:38:48;19.46;59.30
65239;SHT30;51827;51.186;6.926;2022-11-04T06:39:48;19.46;59.35
65239;SHT30;51827;51.186;6.926;2022-11-04T06:40:49;19.46;59.32
65239;SHT30;51827;51.186;6.926;2022-11-04T06:41:49;19.45;59.32
65239;SHT30;51827;51.186;6.926;2022-11-04T06:42:49;19.47;59.31
65239;SHT30;51827;51.186;6.926;2022-11-04T06:43:49;19.46;59.35
65239;SHT30;51827;51.186;6.926;2022-11-04T06:44:50;19.45;59.33
65239;SHT30;51827;51.186;6.926;2022-11-04T06:46:26;19.45;59.29
65239;SHT30;51827;51.186;6.926;2022-11-04T06:47:27;19.45;59.32
65239;SHT30;51827;51.186;6.926;2022-11-04T06:48:27;19.45;59.35
65239;SHT30;51827;51.186;6.926;2022-11-04T06:49:28;19.46;59.34
65239;SHT30;51827;51.186;6.926;2022-11-04T06:50:28;19.45;59.36
65239;SHT30;51827;51.186;6.926;2022-11-04T06:51:29;19.43;59.37
65239;SHT30;51827;51.186;6.926;2022-11-04T06:52:29;19.43;59.33
65239;SHT30;51827;51.186;6.926;2022-11-04T06:53:29;19.43;59.36
65239;SHT30;51827;51.186;6.926;2022-11-04T06:54:29;19.46;59.34
65239;SHT30;51827;51.186;6.926;2022-11-04T06:55:30;19.43;59.41
65239;SHT30;51827;51.186;6.926;2022-11-04T06:56:30;19.45;59.42
65239;SHT30;51827;51.186;6.926;2022-11-04T06:57:30;19.43;59.36
65239;SHT30;51827;51.186;6.926;2022-11-04T06:58:31;19.46;59.33
65239;SHT30;51827;51.186;6.926;2022-11-04T06:59:31;19.42;59.36
65239;SHT30;51827;51.186;6.926;2022-11-04T07:00:31;19.43;59.41
65239;SHT30;51827;51.186;6.926;2022-11-04T07:01:33;19.45;59.40
65239;SHT30;51827;51.186;6.926;2022-11-04T07:02:35;19.45;59.36
65239;SHT30;51827;51.186;6.926;2022-11-04T07:03:35;19.45;59.39
65239;SHT30;51827;51.186;6.926;2022-11-04T07:04:36;19.43;59.39
65239;SHT30;51827;51.186;6.926;2022-11-04T07:05:36;19.43;59.42
65239;SHT30;51827;51.186;6.926;2022-11-04T07:06:36;19.42;59.40
65239;SHT30;51827;51.186;6.926;2022-11-04T07:07:37;19.43;59.40
65239;SHT30;51827;51.186;6.926;2022-11-04T07:08:37;19.45;59.42
65239;SHT30;51827;51.186;6.926;2022-11-04T07:09:38;19.42;59.42
65239;SHT30;51827;51.186;6.926;2022-11-04T07:10:38;19.42;59.42
65239;SHT30;51827;51.186;6.926;2022-11-04T07:11:39;19.45;59.37
65239;SHT30;51827;51.186;6.926;2022-11-04T07:12:40;19.46;59.37